Ce-bermuda — D5LD5 — position and weather

sailwx.info

Track history (hours):
 
Tides and Currents Weather Stations Pressure Air Temp Water Temp Dewpoint Dewpoint Depression Visibility Wind Speed Wind Dir Waves Ship Positions

Ce-bermuda

Last reported at 2018-Jun-16 00:03 UTC. Time now 2018-Jun-25 05:52 UTC.
Position N 01°22' E 103°18'.
Warning: this ship's position is 9 days out of date.

Length 274 m; draft 9.2 m.

Type: Tanker. MMSI: 636017476.

Date/timePositionNaut miles runAvg speedWind from/ knotsBaromVisibWave heightAir tempDewpointWater temp
2018-Jun-16 00:03N 01°22' E 103°18'1 9.9
2018-Jun-15 23:56N 01°21' E 103°18'410.1
2018-Jun-15 23:30N 01°18' E 103°22'510.1
2018-Jun-15 23:00N 01°15' E 103°25'5 9.8
2018-Jun-15 22:30N 01°13' E 103°30'510.1
2018-Jun-15 22:00N 01°12' E 103°35'5 9.5
2018-Jun-15 21:30N 01°11' E 103°39'510.6
2018-Jun-15 21:00N 01°08' E 103°44'5 9.4
2018-Jun-15 20:31N 01°11' E 103°48'5 9.2
2018-Jun-15 20:00N 01°12' E 103°52'510.5
2018-Jun-15 19:30N 01°15' E 103°57'5 9.7
2018-Jun-15 19:00N 01°16' E 104°02'510.9
2018-Jun-15 18:30N 01°17' E 104°07'510.8
2018-Jun-15 18:00N 01°17' E 104°13'510.8
2018-Jun-15 17:30N 01°18' E 104°18'510.1
2018-Jun-15 17:00N 01°21' E 104°22'611.6
2018-Jun-15 16:29N 01°25' E 104°26'611.5
2018-Jun-15 15:58N 01°30' E 104°29'5 9.9
2018-Jun-15 15:28N 01°35' E 104°30'4 6.4
2018-Jun-15 14:52N 01°39' E 104°30'3 7.2
2018-Jun-15 14:30N 01°40' E 104°27'0 0.2
2018-Jun-15 13:14N 01°40' E 104°27'0 0.1
2018-Jun-15 12:41N 01°40' E 104°27'0 0.0
2018-Jun-14 11:06N 01°40' E 104°27'8 6.1
2018-Jun-14 09:47N 01°32' E 104°30'411.7
2018-Jun-14 09:28N 01°29' E 104°29'612.5
2018-Jun-14 08:58N 01°23' E 104°26'613.1
2018-Jun-14 08:30N 01°19' E 104°22'612.3
2018-Jun-14 08:00N 01°17' E 104°16'613.0
2018-Jun-14 07:30N 01°16' E 104°10'5 9.7
2018-Jun-14 07:00N 01°18' E 104°05'1 0.4
2018-Jun-14 05:39N 01°18' E 104°05'0 0.0
2018-Jun-14 04:45N 01°18' E 104°05'0 0.1
2018-Jun-14 04:29N 01°18' E 104°05'0 0.0
2018-Jun-14 03:57N 01°18' E 104°05'0 0.0
2018-Jun-14 03:27N 01°18' E 104°05'0 0.0
2018-Jun-14 02:59N 01°18' E 104°05'0 0.0
2018-Jun-14 02:26N 01°18' E 104°05'0 0.0
2018-Jun-14 01:56N 01°18' E 104°05'0 0.1
2018-Jun-14 00:30N 01°18' E 104°05'0 0.1
2018-Jun-14 00:00N 01°18' E 104°05'0 0.0
2018-Jun-13 23:15N 01°18' E 104°05'0 0.2
2018-Jun-13 22:54N 01°18' E 104°05'0 0.0
2018-Jun-13 22:14N 01°18' E 104°05'0 0.0
2018-Jun-13 21:48N 01°18' E 104°05'0 0.0
2018-Jun-13 21:27N 01°18' E 104°05'0 0.0
2018-Jun-13 20:51N 01°18' E 104°05'0 0.0
2018-Jun-13 20:15N 01°18' E 104°05'0 0.0
2018-Jun-13 19:56N 01°18' E 104°05'0 0.0
2018-Jun-13 19:12N 01°18' E 104°05'0 0.0
2018-Jun-13 18:54N 01°18' E 104°05'0 0.0
2018-Jun-13 18:30N 01°18' E 104°05'0 0.1
2018-Jun-13 17:50N 01°18' E 104°05'0 0.0
2018-Jun-13 17:29N 01°18' E 104°05'0 0.1
2018-Jun-13 17:00N 01°18' E 104°05'0 0.1
2018-Jun-13 16:27N 01°18' E 104°05'0 0.1
2018-Jun-13 15:42N 01°18' E 104°05'0 0.1
2018-Jun-13 15:30N 01°18' E 104°05'0 0.2
2018-Jun-13 14:51N 01°18' E 104°05'0 0.1
2018-Jun-13 14:29N 01°18' E 104°05'0 0.1
2018-Jun-13 13:06N 01°18' E 104°05'0 0.1
2018-Jun-13 12:03N 01°18' E 104°05'0 0.0
2018-Jun-13 12:00N 01°18' E 104°05'0 0.1
2018-Jun-13 11:11N 01°18' E 104°05'0 0.2
2018-Jun-13 10:56N 01°18' E 104°05'0 0.1
2018-Jun-13 10:23N 01°18' E 104°05'0 0.0
2018-Jun-13 09:59N 01°18' E 104°05'0 0.1
2018-Jun-13 09:30N 01°18' E 104°05'0 0.3
2018-Jun-13 09:00N 01°18' E 104°05'0 0.1
2018-Jun-13 08:14N 01°18' E 104°05'0 0.0
2018-Jun-13 07:56N 01°18' E 104°05'0 0.0
2018-Jun-13 07:27N 01°18' E 104°05'0 0.0
2018-Jun-13 06:51N 01°18' E 104°05'0 0.1
2018-Jun-13 06:27N 01°18' E 104°05'0 0.2
2018-Jun-13 05:57N 01°18' E 104°05'0 0.1
2018-Jun-13 05:23N 01°18' E 104°05'0 0.1
2018-Jun-13 04:48N 01°18' E 104°05'0 0.3
2018-Jun-13 04:20N 01°18' E 104°05'0 0.2
2018-Jun-13 04:00N 01°18' E 104°05'0 0.0
2018-Jun-13 02:27N 01°18' E 104°05'0 0.4
2018-Jun-13 02:00N 01°18' E 104°05'2 3.9
2018-Jun-13 01:30N 01°17' E 104°07'2 3.9
2018-Jun-13 01:00N 01°17' E 104°08'3 4.7
2018-Jun-13 00:26N 01°17' E 104°11'2 3.7
2018-Jun-12 23:59N 01°18' E 104°13'1 1.8
2018-Jun-12 23:30N 01°18' E 104°14'1 2.9
2018-Jun-12 23:00N 01°18' E 104°15'2 4.2
2018-Jun-12 22:27N 01°19' E 104°17'3 4.5
2018-Jun-12 21:53N 01°19' E 104°20'2 4.6
2018-Jun-12 21:30N 01°21' E 104°21'2 3.8
2018-Jun-12 20:59N 01°22' E 104°23'2 3.1
2018-Jun-12 20:30N 01°23' E 104°24'3 5.0
2018-Jun-12 19:59N 01°24' E 104°26'4 7.5
2018-Jun-12 19:31N 01°27' E 104°28'6 8.0
2018-Jun-12 18:45N 01°31' E 104°33'4 7.9
2018-Jun-12 18:11N 01°35' E 104°35'3 7.9
2018-Jun-12 17:52N 01°38' E 104°35'  
2018-Jun-06 09:15N 22°14' E 120°02'2 9.3
2018-Jun-06 08:59N 22°16' E 120°03'3 6.1
2018-Jun-06 08:30N 22°18' E 120°05'4 8.0
2018-Jun-06 07:59N 22°21' E 120°09'511.0
2018-Jun-06 07:30N 22°24' E 120°13'510.1
2018-Jun-06 07:00N 22°27' E 120°17'1 1.9
2018-Jun-06 06:30N 22°28' E 120°18'0 0.4
2018-Jun-06 05:58N 22°28' E 120°18'0 0.0
2018-Jun-06 05:28N 22°28' E 120°18'0 0.1
2018-Jun-06 04:58N 22°28' E 120°18'0 0.0
2018-Jun-06 04:28N 22°28' E 120°18'0 0.0
2018-Jun-06 03:58N 22°28' E 120°18'0 0.0
2018-Jun-06 03:28N 22°28' E 120°18'0 0.0
2018-Jun-06 02:58N 22°28' E 120°18'0 0.0
2018-Jun-06 02:16N 22°28' E 120°18'0 0.0
2018-Jun-06 01:58N 22°28' E 120°18'0 0.1
2018-Jun-06 01:28N 22°28' E 120°18'0 0.1
2018-Jun-06 00:58N 22°28' E 120°18'0 0.0
2018-Jun-06 00:28N 22°28' E 120°18'  
Track history (hours):
 
Tides and Currents Weather Stations Pressure Air Temp Water Temp Dewpoint Dewpoint Depression Visibility Wind Speed Wind Dir Waves Ship Positions

Ce-bermuda

Last reported at 2018-Jun-16 00:03 UTC. Time now 2018-Jun-25 05:52 UTC.
Position N 01°22' E 103°18'.
Warning: this ship's position is 9 days out of date.

Length 274 m; draft 9.2 m.

Type: Tanker. MMSI: 636017476.

Date/timePositionNaut miles runAvg speedWind from/ knotsBaromVisibWave heightAir tempDewpointWater temp
2018-Jun-16 00:03N 01°22' E 103°18'1 9.9
2018-Jun-15 23:56N 01°21' E 103°18'410.1
2018-Jun-15 23:30N 01°18' E 103°22'510.1
2018-Jun-15 23:00N 01°15' E 103°25'5 9.8
2018-Jun-15 22:30N 01°13' E 103°30'510.1
2018-Jun-15 22:00N 01°12' E 103°35'5 9.5
2018-Jun-15 21:30N 01°11' E 103°39'510.6
2018-Jun-15 21:00N 01°08' E 103°44'5 9.4
2018-Jun-15 20:31N 01°11' E 103°48'5 9.2
2018-Jun-15 20:00N 01°12' E 103°52'510.5
2018-Jun-15 19:30N 01°15' E 103°57'5 9.7
2018-Jun-15 19:00N 01°16' E 104°02'510.9
2018-Jun-15 18:30N 01°17' E 104°07'510.8
2018-Jun-15 18:00N 01°17' E 104°13'510.8
2018-Jun-15 17:30N 01°18' E 104°18'510.1
2018-Jun-15 17:00N 01°21' E 104°22'611.6
2018-Jun-15 16:29N 01°25' E 104°26'611.5
2018-Jun-15 15:58N 01°30' E 104°29'5 9.9
2018-Jun-15 15:28N 01°35' E 104°30'4 6.4
2018-Jun-15 14:52N 01°39' E 104°30'3 7.2
2018-Jun-15 14:30N 01°40' E 104°27'0 0.2
2018-Jun-15 13:14N 01°40' E 104°27'0 0.1
2018-Jun-15 12:41N 01°40' E 104°27'0 0.0
2018-Jun-14 11:06N 01°40' E 104°27'8 6.1
2018-Jun-14 09:47N 01°32' E 104°30'411.7
2018-Jun-14 09:28N 01°29' E 104°29'612.5
2018-Jun-14 08:58N 01°23' E 104°26'613.1
2018-Jun-14 08:30N 01°19' E 104°22'612.3
2018-Jun-14 08:00N 01°17' E 104°16'613.0
2018-Jun-14 07:30N 01°16' E 104°10'5 9.7
2018-Jun-14 07:00N 01°18' E 104°05'1 0.4
2018-Jun-14 05:39N 01°18' E 104°05'0 0.0
2018-Jun-14 04:45N 01°18' E 104°05'0 0.1
2018-Jun-14 04:29N 01°18' E 104°05'0 0.0
2018-Jun-14 03:57N 01°18' E 104°05'0 0.0
2018-Jun-14 03:27N 01°18' E 104°05'0 0.0
2018-Jun-14 02:59N 01°18' E 104°05'0 0.0
2018-Jun-14 02:26N 01°18' E 104°05'0 0.0
2018-Jun-14 01:56N 01°18' E 104°05'0 0.1
2018-Jun-14 00:30N 01°18' E 104°05'0 0.1
2018-Jun-14 00:00N 01°18' E 104°05'0 0.0
2018-Jun-13 23:15N 01°18' E 104°05'0 0.2
2018-Jun-13 22:54N 01°18' E 104°05'0 0.0
2018-Jun-13 22:14N 01°18' E 104°05'0 0.0
2018-Jun-13 21:48N 01°18' E 104°05'0 0.0
2018-Jun-13 21:27N 01°18' E 104°05'0 0.0
2018-Jun-13 20:51N 01°18' E 104°05'0 0.0
2018-Jun-13 20:15N 01°18' E 104°05'0 0.0
2018-Jun-13 19:56N 01°18' E 104°05'0 0.0
2018-Jun-13 19:12N 01°18' E 104°05'0 0.0
2018-Jun-13 18:54N 01°18' E 104°05'0 0.0
2018-Jun-13 18:30N 01°18' E 104°05'0 0.1
2018-Jun-13 17:50N 01°18' E 104°05'0 0.0
2018-Jun-13 17:29N 01°18' E 104°05'0 0.1
2018-Jun-13 17:00N 01°18' E 104°05'0 0.1
2018-Jun-13 16:27N 01°18' E 104°05'0 0.1
2018-Jun-13 15:42N 01°18' E 104°05'0 0.1
2018-Jun-13 15:30N 01°18' E 104°05'0 0.2
2018-Jun-13 14:51N 01°18' E 104°05'0 0.1
2018-Jun-13 14:29N 01°18' E 104°05'0 0.1
2018-Jun-13 13:06N 01°18' E 104°05'0 0.1
2018-Jun-13 12:03N 01°18' E 104°05'0 0.0
2018-Jun-13 12:00N 01°18' E 104°05'0 0.1
2018-Jun-13 11:11N 01°18' E 104°05'0 0.2
2018-Jun-13 10:56N 01°18' E 104°05'0 0.1
2018-Jun-13 10:23N 01°18' E 104°05'0 0.0
2018-Jun-13 09:59N 01°18' E 104°05'0 0.1
2018-Jun-13 09:30N 01°18' E 104°05'0 0.3
2018-Jun-13 09:00N 01°18' E 104°05'0 0.1
2018-Jun-13 08:14N 01°18' E 104°05'0 0.0
2018-Jun-13 07:56N 01°18' E 104°05'0 0.0
2018-Jun-13 07:27N 01°18' E 104°05'0 0.0
2018-Jun-13 06:51N 01°18' E 104°05'0 0.1
2018-Jun-13 06:27N 01°18' E 104°05'0 0.2
2018-Jun-13 05:57N 01°18' E 104°05'0 0.1
2018-Jun-13 05:23N 01°18' E 104°05'0 0.1
2018-Jun-13 04:48N 01°18' E 104°05'0 0.3
2018-Jun-13 04:20N 01°18' E 104°05'0 0.2
2018-Jun-13 04:00N 01°18' E 104°05'0 0.0
2018-Jun-13 02:27N 01°18' E 104°05'0 0.4
2018-Jun-13 02:00N 01°18' E 104°05'2 3.9
2018-Jun-13 01:30N 01°17' E 104°07'2 3.9
2018-Jun-13 01:00N 01°17' E 104°08'3 4.7
2018-Jun-13 00:26N 01°17' E 104°11'2 3.7
2018-Jun-12 23:59N 01°18' E 104°13'1 1.8
2018-Jun-12 23:30N 01°18' E 104°14'1 2.9
2018-Jun-12 23:00N 01°18' E 104°15'2 4.2
2018-Jun-12 22:27N 01°19' E 104°17'3 4.5
2018-Jun-12 21:53N 01°19' E 104°20'2 4.6
2018-Jun-12 21:30N 01°21' E 104°21'2 3.8
2018-Jun-12 20:59N 01°22' E 104°23'2 3.1
2018-Jun-12 20:30N 01°23' E 104°24'3 5.0
2018-Jun-12 19:59N 01°24' E 104°26'4 7.5
2018-Jun-12 19:31N 01°27' E 104°28'6 8.0
2018-Jun-12 18:45N 01°31' E 104°33'4 7.9
2018-Jun-12 18:11N 01°35' E 104°35'3 7.9
2018-Jun-12 17:52N 01°38' E 104°35'  
2018-Jun-06 09:15N 22°14' E 120°02'2 9.3
2018-Jun-06 08:59N 22°16' E 120°03'3 6.1
2018-Jun-06 08:30N 22°18' E 120°05'4 8.0
2018-Jun-06 07:59N 22°21' E 120°09'511.0
2018-Jun-06 07:30N 22°24' E 120°13'510.1
2018-Jun-06 07:00N 22°27' E 120°17'1 1.9
2018-Jun-06 06:30N 22°28' E 120°18'0 0.4
2018-Jun-06 05:58N 22°28' E 120°18'0 0.0
2018-Jun-06 05:28N 22°28' E 120°18'0 0.1
2018-Jun-06 04:58N 22°28' E 120°18'0 0.0
2018-Jun-06 04:28N 22°28' E 120°18'0 0.0
2018-Jun-06 03:58N 22°28' E 120°18'0 0.0
2018-Jun-06 03:28N 22°28' E 120°18'0 0.0
2018-Jun-06 02:58N 22°28' E 120°18'0 0.0
2018-Jun-06 02:16N 22°28' E 120°18'0 0.0
2018-Jun-06 01:58N 22°28' E 120°18'0 0.1
2018-Jun-06 01:28N 22°28' E 120°18'0 0.1
2018-Jun-06 00:58N 22°28' E 120°18'0 0.0
2018-Jun-06 00:28N 22°28' E 120°18'  

Dump ship's entire track history